createdAt,value
2018-08-27T00:00:59.404Z,9.59
2018-08-27T00:03:29.319Z,9.50
2018-08-27T00:05:59.458Z,9.54
2018-08-27T00:08:28.287Z,9.55
2018-08-27T00:10:56.952Z,9.51
2018-08-27T00:13:25.872Z,9.51
2018-08-27T00:15:55.429Z,9.47
2018-08-27T00:18:24.584Z,9.41
2018-08-27T00:20:53.363Z,9.41
2018-08-27T00:23:22.065Z,9.37
2018-08-27T00:25:50.747Z,9.41
2018-08-27T00:28:19.597Z,9.41
2018-08-27T00:30:48.600Z,9.35
2018-08-27T00:33:17.274Z,9.42
2018-08-27T00:35:46.306Z,9.53
2018-08-27T00:38:15.838Z,9.58
2018-08-27T00:40:44.736Z,9.63
2018-08-27T00:43:14.078Z,9.69
2018-08-27T00:45:43.067Z,9.75
2018-08-27T00:48:12.437Z,9.76
2018-08-27T00:50:41.558Z,9.83
2018-08-27T00:53:10.180Z,9.89
2018-08-27T00:55:38.984Z,9.91
2018-08-27T00:58:07.559Z,9.92
2018-08-27T01:00:36.453Z,9.93
2018-08-27T01:03:05.999Z,9.95
2018-08-27T01:05:35.897Z,9.93
2018-08-27T01:08:05.128Z,9.92
2018-08-27T01:10:37.115Z,9.94
2018-08-27T01:13:05.757Z,9.92
2018-08-27T01:15:34.583Z,9.94
2018-08-27T01:18:03.223Z,9.97
2018-08-27T01:20:31.927Z,10.01
2018-08-27T01:23:01.468Z,10.03
2018-08-27T01:25:30.305Z,10.06
2018-08-27T01:27:59.900Z,10.10
2018-08-27T01:30:28.758Z,10.13
2018-08-27T01:32:58.739Z,10.14
2018-08-27T01:35:27.733Z,10.12
2018-08-27T01:37:56.783Z,10.14
2018-08-27T01:40:25.659Z,10.17
2018-08-27T01:42:54.328Z,10.21
2018-08-27T01:45:23.105Z,10.25
2018-08-27T01:47:51.659Z,10.28
2018-08-27T01:50:20.364Z,10.30
2018-08-27T01:52:49.259Z,10.33
2018-08-27T01:55:17.965Z,10.35
2018-08-27T01:57:46.843Z,10.35
2018-08-27T02:00:15.872Z,10.34
2018-08-27T02:02:44.710Z,10.34
2018-08-27T02:05:13.334Z,10.33
2018-08-27T02:07:42.389Z,10.32
2018-08-27T02:10:11.005Z,10.34
2018-08-27T02:12:39.769Z,10.37
2018-08-27T02:15:09.565Z,10.35
2018-08-27T02:17:39.054Z,10.36
2018-08-27T02:20:07.719Z,10.36
2018-08-27T02:22:36.544Z,10.38
2018-08-27T02:25:05.340Z,10.41
2018-08-27T02:27:34.356Z,10.40
2018-08-27T02:30:03.855Z,10.42
2018-08-27T02:32:33.794Z,10.44
2018-08-27T02:35:02.522Z,10.44
2018-08-27T02:37:32.093Z,10.47
2018-08-27T02:40:01.136Z,10.47
2018-08-27T02:42:30.403Z,10.49
2018-08-27T02:44:59.062Z,10.52
2018-08-27T02:47:28.343Z,10.51
2018-08-27T02:49:57.371Z,10.53
2018-08-27T02:52:26.541Z,10.54
2018-08-27T02:54:55.606Z,10.51
2018-08-27T02:57:25.277Z,10.50
2018-08-27T02:59:54.894Z,10.50
2018-08-27T03:02:25.540Z,10.49
2018-08-27T03:04:54.375Z,10.50
2018-08-27T03:07:23.115Z,10.49
2018-08-27T03:09:51.916Z,10.50
2018-08-27T03:12:20.910Z,10.50
2018-08-27T03:14:49.735Z,10.51
2018-08-27T03:17:18.558Z,10.52
2018-08-27T03:19:47.122Z,10.53
2018-08-27T03:22:16.216Z,10.53
2018-08-27T03:24:45.620Z,10.54
2018-08-27T03:27:14.409Z,10.54
2018-08-27T03:29:43.988Z,10.55
2018-08-27T03:32:14.368Z,10.53
2018-08-27T03:34:44.385Z,10.50
2018-08-27T03:37:13.545Z,10.50
2018-08-27T03:39:43.915Z,10.48
2018-08-27T03:42:12.674Z,10.49
2018-08-27T03:44:42.273Z,10.52
2018-08-27T03:47:11.078Z,10.51
2018-08-27T03:49:39.895Z,10.50
2018-08-27T03:52:08.930Z,10.50
2018-08-27T03:54:38.646Z,10.53
2018-08-27T03:57:07.325Z,10.55
2018-08-27T03:59:36.775Z,10.58
2018-08-27T04:02:05.398Z,10.60
2018-08-27T04:04:34.140Z,10.63
2018-08-27T04:07:03.295Z,10.65
2018-08-27T04:09:33.020Z,10.67
2018-08-27T04:12:01.868Z,10.66
2018-08-27T04:14:30.543Z,10.65
2018-08-27T04:17:00.540Z,10.66
2018-08-27T04:19:32.339Z,10.66
2018-08-27T04:22:03.553Z,10.66
2018-08-27T04:24:32.305Z,10.69
2018-08-27T04:27:00.999Z,10.72
2018-08-27T04:29:29.728Z,10.73
2018-08-27T04:31:58.510Z,10.74
2018-08-27T04:34:27.294Z,10.78
2018-08-27T04:36:57.073Z,10.82
2018-08-27T04:39:25.731Z,10.84
2018-08-27T04:41:55.626Z,10.87
2018-08-27T04:44:25.533Z,10.90
2018-08-27T04:46:54.380Z,10.89
2018-08-27T04:49:23.009Z,10.88
2018-08-27T04:51:51.915Z,10.89
2018-08-27T04:54:21.507Z,10.93
2018-08-27T04:56:50.306Z,10.96
2018-08-27T04:59:26.021Z,11.00
2018-08-27T05:01:54.896Z,11.05
2018-08-27T05:04:23.924Z,11.10
2018-08-27T05:06:53.599Z,11.14
2018-08-27T05:09:23.986Z,11.15
2018-08-27T05:11:52.644Z,11.14
2018-08-27T05:14:23.234Z,11.17
2018-08-27T05:16:52.140Z,11.15
2018-08-27T05:19:21.650Z,11.18
2018-08-27T05:21:50.310Z,11.21
2018-08-27T05:24:20.145Z,11.30
2018-08-27T05:26:49.102Z,11.41
2018-08-27T05:29:18.574Z,11.50
2018-08-27T05:31:48.307Z,11.63
2018-08-27T05:34:17.799Z,11.77
2018-08-27T05:36:46.429Z,11.86
2018-08-27T05:39:15.130Z,12.09
2018-08-27T05:41:44.051Z,12.29
2018-08-27T05:44:12.675Z,12.55
2018-08-27T05:46:41.787Z,12.68
2018-08-27T05:49:11.131Z,12.90
2018-08-27T05:51:40.064Z,13.11
2018-08-27T05:54:08.805Z,13.28
2018-08-27T05:56:37.910Z,13.39
2018-08-27T05:59:07.017Z,13.50
2018-08-27T06:01:35.711Z,13.47
2018-08-27T06:04:04.559Z,13.47
2018-08-27T06:06:34.950Z,13.52
2018-08-27T06:09:05.195Z,13.52
2018-08-27T06:11:34.146Z,13.61
2018-08-27T06:14:03.324Z,13.79
2018-08-27T06:16:32.147Z,13.84
2018-08-27T06:19:00.788Z,13.95
2018-08-27T06:21:29.661Z,14.02
2018-08-27T06:23:58.320Z,14.04
2018-08-27T06:26:27.750Z,14.09
2018-08-27T06:28:56.424Z,14.23
2018-08-27T06:31:26.041Z,14.43
2018-08-27T06:33:54.785Z,14.62
2018-08-27T06:36:23.501Z,14.82
2018-08-27T06:38:52.591Z,14.93
2018-08-27T06:41:21.729Z,15.11
2018-08-27T06:43:51.595Z,15.24
2018-08-27T06:46:20.553Z,15.34
2018-08-27T06:48:50.178Z,15.48
2018-08-27T06:51:19.906Z,15.64
2018-08-27T06:53:48.567Z,15.73
2018-08-27T06:56:18.240Z,15.94
2018-08-27T06:58:47.530Z,16.10
2018-08-27T07:01:16.731Z,16.33
2018-08-27T07:03:45.430Z,16.57
2018-08-27T07:06:14.210Z,17.31
2018-08-27T07:08:42.926Z,18.51
2018-08-27T07:11:11.634Z,19.86
2018-08-27T07:13:41.032Z,20.77
2018-08-27T07:16:10.505Z,21.15
2018-08-27T07:18:39.480Z,21.53
2018-08-27T07:21:10.063Z,22.32
2018-08-27T07:23:39.762Z,22.46
2018-08-27T07:26:08.477Z,21.98
2018-08-27T07:28:38.088Z,21.50
2018-08-27T07:31:07.283Z,21.07
2018-08-27T07:33:36.088Z,21.18
2018-08-27T07:36:04.853Z,21.23
2018-08-27T07:38:33.571Z,21.36
2018-08-27T07:41:02.255Z,21.98
2018-08-27T07:43:31.752Z,22.58
2018-08-27T07:46:01.685Z,23.19
2018-08-27T07:48:31.056Z,22.86
2018-08-27T07:50:59.795Z,22.34
2018-08-27T07:53:28.530Z,21.99
2018-08-27T07:55:57.605Z,21.88
2018-08-27T07:58:27.382Z,21.58
2018-08-27T08:00:56.937Z,21.47
2018-08-27T08:03:26.280Z,21.51
2018-08-27T08:05:55.060Z,21.55
2018-08-27T08:08:24.581Z,21.95
2018-08-27T08:10:54.964Z,22.36
2018-08-27T08:13:24.805Z,22.39
2018-08-27T08:15:53.588Z,22.70
2018-08-27T08:18:22.536Z,22.97
2018-08-27T08:20:53.258Z,23.32
2018-08-27T08:23:21.976Z,23.65
2018-08-27T08:25:51.136Z,23.63
2018-08-27T08:28:19.983Z,23.31
2018-08-27T08:30:48.808Z,22.83
2018-08-27T08:33:17.771Z,22.67
2018-08-27T08:35:46.981Z,22.35
2018-08-27T08:38:16.281Z,22.44
2018-08-27T08:40:45.507Z,22.66
2018-08-27T08:43:14.684Z,22.86
2018-08-27T08:45:43.613Z,23.26
2018-08-27T08:48:12.243Z,23.70
2018-08-27T08:50:41.019Z,24.03
2018-08-27T08:53:09.733Z,24.24
2018-08-27T08:55:39.336Z,23.68
2018-08-27T08:58:08.265Z,23.64
2018-08-27T09:00:36.927Z,23.37
2018-08-27T09:03:05.972Z,23.21
2018-08-27T09:05:36.056Z,23.01
2018-08-27T09:08:05.066Z,23.20
2018-08-27T09:10:34.473Z,23.10
2018-08-27T09:13:04.511Z,23.26
2018-08-27T09:15:33.351Z,23.11
2018-08-27T09:18:04.230Z,23.33
2018-08-27T09:20:33.122Z,23.58
2018-08-27T09:23:01.978Z,24.09
2018-08-27T09:25:30.632Z,24.55
2018-08-27T09:27:59.732Z,25.37
2018-08-27T09:30:30.055Z,25.85
2018-08-27T09:33:00.491Z,25.88
2018-08-27T09:35:29.182Z,26.05
2018-08-27T09:37:57.860Z,26.42
2018-08-27T09:40:26.743Z,25.93
2018-08-27T09:42:56.176Z,25.83
2018-08-27T09:45:25.651Z,25.53
2018-08-27T09:47:54.630Z,25.57
2018-08-27T09:50:23.716Z,25.71
2018-08-27T09:52:53.218Z,26.32
2018-08-27T09:55:22.152Z,26.21
2018-08-27T09:57:51.708Z,26.26
2018-08-27T10:01:23.797Z,26.17
2018-08-27T10:03:53.067Z,26.39
2018-08-27T10:06:22.032Z,25.90
2018-08-27T10:08:50.815Z,26.13
2018-08-27T10:11:20.977Z,25.95
2018-08-27T10:13:50.175Z,26.18
2018-08-27T10:16:19.002Z,26.16
2018-08-27T10:18:49.232Z,26.33
2018-08-27T10:21:18.135Z,26.30
2018-08-27T10:23:47.092Z,26.56
2018-08-27T10:26:16.975Z,26.41
2018-08-27T10:28:45.586Z,26.45
2018-08-27T10:31:14.665Z,26.18
2018-08-27T10:33:43.516Z,25.93
2018-08-27T10:36:13.117Z,25.93
2018-08-27T10:38:42.103Z,25.73
2018-08-27T10:41:10.776Z,25.85
2018-08-27T10:43:39.908Z,26.19
2018-08-27T10:46:08.663Z,26.33
2018-08-27T10:48:38.493Z,26.54
2018-08-27T10:51:07.495Z,26.02
2018-08-27T10:53:36.487Z,25.86
2018-08-27T10:56:05.977Z,25.70
2018-08-27T10:58:35.721Z,25.57
2018-08-27T11:01:04.488Z,25.40
2018-08-27T11:03:33.659Z,25.31
2018-08-27T11:06:02.343Z,25.15
2018-08-27T11:08:32.213Z,25.16
2018-08-27T11:11:01.928Z,25.12
2018-08-27T11:13:31.820Z,25.10
2018-08-27T11:16:00.739Z,25.22
2018-08-27T11:18:30.939Z,25.14
2018-08-27T11:21:00.497Z,25.09
2018-08-27T11:23:29.332Z,25.19
2018-08-27T11:25:58.128Z,25.45
2018-08-27T11:28:26.807Z,25.64
2018-08-27T11:30:56.283Z,25.75
2018-08-27T11:33:25.624Z,25.89
2018-08-27T11:35:54.434Z,25.93
2018-08-27T11:38:23.194Z,26.28
2018-08-27T11:40:51.978Z,26.50
2018-08-27T11:43:21.462Z,26.54
2018-08-27T11:45:50.406Z,26.59
2018-08-27T11:48:19.173Z,27.55
2018-08-27T11:50:48.045Z,28.52
2018-08-27T11:53:17.232Z,28.75
2018-08-27T11:55:46.197Z,28.74
2018-08-27T11:58:14.891Z,28.42
2018-08-27T12:00:48.886Z,28.33
2018-08-27T12:03:17.804Z,28.43
2018-08-27T12:05:47.200Z,28.32
2018-08-27T12:08:16.231Z,28.10
2018-08-27T12:10:44.933Z,28.36
2018-08-27T12:13:13.863Z,28.27
2018-08-27T12:15:42.793Z,27.88
2018-08-27T12:18:11.433Z,27.62
2018-08-27T12:20:40.145Z,27.15
2018-08-27T12:23:08.916Z,27.60
2018-08-27T12:25:38.489Z,27.89
2018-08-27T12:28:08.332Z,27.76
2018-08-27T12:30:37.293Z,28.07
2018-08-27T12:41:41.851Z,31.83
2018-08-27T12:44:10.756Z,31.48
2018-08-27T12:46:39.568Z,31.05
2018-08-27T12:49:10.217Z,30.97
2018-08-27T12:51:38.823Z,31.35
2018-08-27T12:54:07.534Z,31.11
2018-08-27T12:56:37.814Z,30.88
2018-08-27T12:59:07.012Z,30.52
2018-08-27T13:01:35.893Z,29.71
2018-08-27T13:04:05.414Z,29.55
2018-08-27T13:06:34.362Z,30.55
2018-08-27T13:09:04.302Z,30.74
2018-08-27T13:11:33.180Z,30.80
2018-08-27T13:14:02.094Z,31.48
2018-08-27T13:16:31.732Z,32.61
2018-08-27T13:19:00.707Z,32.86
2018-08-27T13:21:30.074Z,32.83
2018-08-27T13:23:58.857Z,32.62
2018-08-27T13:26:27.577Z,31.93
2018-08-27T13:28:56.403Z,30.84
2018-08-27T13:31:25.996Z,29.84
2018-08-27T13:33:55.156Z,29.52
2018-08-27T13:36:23.861Z,28.92
2018-08-27T13:38:52.707Z,28.58
2018-08-27T13:41:23.518Z,28.58
2018-08-27T13:43:52.152Z,28.34
2018-08-27T13:46:21.282Z,28.42
2018-08-27T13:48:50.743Z,28.13
2018-08-27T13:51:21.763Z,27.89
2018-08-27T13:53:50.756Z,27.67
2018-08-27T13:56:20.112Z,27.68
2018-08-27T13:58:49.521Z,27.59
2018-08-27T14:01:18.263Z,27.71
2018-08-27T14:03:46.973Z,27.63
2018-08-27T14:06:15.763Z,28.02
2018-08-27T14:08:44.439Z,28.57
2018-08-27T14:11:14.138Z,28.69
2018-08-27T14:13:42.965Z,28.39
2018-08-27T14:16:12.148Z,28.22
2018-08-27T14:18:40.902Z,28.03
2018-08-27T14:21:10.367Z,27.73
2018-08-27T14:23:39.187Z,27.64
2018-08-27T14:26:08.095Z,27.82
2018-08-27T14:28:37.281Z,27.85
2018-08-27T14:31:06.348Z,27.76
2018-08-27T14:33:35.773Z,27.61
2018-08-27T14:36:05.756Z,27.49
2018-08-27T14:38:34.911Z,26.98
2018-08-27T14:41:03.835Z,27.23
2018-08-27T14:43:32.858Z,27.06
2018-08-27T14:46:02.543Z,27.06
2018-08-27T14:48:31.824Z,26.99
2018-08-27T14:51:00.732Z,27.07
2018-08-27T14:53:30.411Z,27.16
2018-08-27T14:55:59.509Z,27.33
2018-08-27T14:58:28.397Z,27.52
2018-08-27T15:01:02.191Z,27.69
2018-08-27T15:03:30.943Z,27.77
2018-08-27T15:06:00.439Z,27.81
2018-08-27T15:08:29.118Z,27.73
2018-08-27T15:10:57.958Z,27.47
2018-08-27T15:13:26.894Z,27.28
2018-08-27T15:15:56.494Z,27.45
2018-08-27T15:18:25.372Z,27.32
2018-08-27T15:20:54.464Z,27.21
2018-08-27T15:23:23.320Z,27.09
2018-08-27T15:25:52.160Z,27.09
2018-08-27T15:28:21.264Z,27.12
2018-08-27T15:30:50.458Z,27.12
2018-08-27T15:33:19.809Z,27.00
2018-08-27T15:35:48.929Z,26.92
2018-08-27T15:38:18.394Z,26.95
2018-08-27T15:40:47.705Z,26.88
2018-08-27T15:43:18.777Z,26.72
2018-08-27T15:45:53.000Z,26.71
2018-08-27T15:48:21.928Z,26.63
2018-08-27T15:50:51.546Z,26.57
2018-08-27T15:53:20.143Z,26.46
2018-08-27T15:55:48.728Z,26.31
2018-08-27T15:58:17.674Z,26.21
2018-08-27T16:00:46.492Z,26.14
2018-08-27T16:03:15.401Z,26.02
2018-08-27T16:05:44.553Z,25.70
2018-08-27T16:08:13.232Z,25.52
2018-08-27T16:10:42.146Z,25.58
2018-08-27T16:13:11.228Z,25.49
2018-08-27T16:15:42.590Z,25.44
2018-08-27T16:18:11.479Z,25.36
2018-08-27T16:20:40.288Z,25.52
2018-08-27T16:23:10.193Z,25.49
2018-08-27T16:25:38.917Z,25.42
2018-08-27T16:28:07.607Z,25.34
2018-08-27T16:30:36.724Z,25.06
2018-08-27T16:33:07.775Z,25.08
2018-08-27T16:35:36.519Z,24.82
2018-08-27T16:38:05.403Z,24.64
2018-08-27T16:40:34.939Z,24.55
2018-08-27T16:43:03.683Z,24.40
2018-08-27T16:45:32.513Z,24.36
2018-08-27T16:48:01.443Z,24.37
2018-08-27T16:50:30.185Z,24.34
2018-08-27T16:53:00.389Z,24.34
2018-08-27T16:55:29.938Z,24.22
2018-08-27T16:57:58.876Z,24.18
2018-08-27T17:00:28.667Z,24.15
2018-08-27T17:02:58.019Z,24.14
2018-08-27T17:05:26.770Z,24.14
2018-08-27T17:07:55.672Z,24.07
2018-08-27T17:10:24.424Z,24.02
2018-08-27T17:12:53.221Z,23.88
2018-08-27T17:15:22.793Z,23.80
2018-08-27T17:17:51.590Z,23.73
2018-08-27T17:20:20.275Z,23.69
2018-08-27T17:22:49.064Z,23.64
2018-08-27T17:25:17.843Z,23.70
2018-08-27T17:27:46.578Z,23.65
2018-08-27T17:30:16.168Z,23.57
2018-08-27T17:32:45.637Z,23.53
2018-08-27T17:35:14.723Z,23.49
2018-08-27T17:37:43.419Z,23.45
2018-08-27T17:40:12.744Z,23.37
2018-08-27T17:42:41.648Z,23.13
2018-08-27T17:45:10.723Z,23.03
2018-08-27T17:47:40.123Z,22.91
2018-08-27T17:50:09.175Z,22.93
2018-08-27T17:52:38.819Z,22.77
2018-08-27T17:55:07.713Z,22.49
2018-08-27T17:57:36.659Z,22.39
2018-08-27T18:00:05.683Z,22.44
2018-08-27T18:02:35.301Z,22.44
2018-08-27T18:05:04.762Z,22.34
2018-08-27T18:07:33.615Z,22.15
2018-08-27T18:10:03.270Z,22.08
2018-08-27T18:12:32.300Z,22.10
2018-08-27T18:15:01.504Z,22.06
2018-08-27T18:17:30.525Z,22.05
2018-08-27T18:19:59.994Z,21.93
2018-08-27T18:22:29.206Z,21.76
2018-08-27T18:24:58.329Z,21.65
2018-08-27T18:27:29.869Z,21.59
2018-08-27T18:29:58.884Z,21.57
2018-08-27T18:32:28.395Z,21.46
2018-08-27T18:34:57.208Z,21.46
2018-08-27T18:37:26.192Z,21.38
2018-08-27T18:39:55.509Z,21.24
2018-08-27T18:42:24.563Z,21.33
2018-08-27T18:44:53.924Z,21.33
2018-08-27T18:47:23.145Z,21.30
2018-08-27T18:49:52.544Z,21.26
2018-08-27T18:52:21.760Z,21.11
2018-08-27T18:54:50.681Z,21.10
2018-08-27T18:57:19.849Z,21.09
2018-08-27T18:59:50.355Z,21.06
2018-08-27T19:02:20.699Z,21.03
2018-08-27T19:04:49.985Z,21.10
2018-08-27T19:07:19.350Z,21.12
2018-08-27T19:09:49.618Z,21.10
2018-08-27T19:12:19.201Z,21.11
2018-08-27T19:14:49.610Z,21.14
2018-08-27T19:17:19.319Z,21.12
2018-08-27T19:19:48.531Z,21.19
2018-08-27T19:22:18.150Z,21.22
2018-08-27T19:24:48.482Z,21.25
2018-08-27T19:27:17.749Z,21.25
2018-08-27T19:29:46.955Z,21.24
2018-08-27T19:32:17.008Z,21.21
2018-08-27T19:34:48.140Z,21.10
2018-08-27T19:37:17.703Z,21.05
2018-08-27T19:39:47.019Z,21.05
2018-08-27T19:42:16.135Z,21.04
2018-08-27T19:44:45.280Z,21.01
2018-08-27T19:47:14.538Z,21.01
2018-08-27T19:49:43.489Z,20.96
2018-08-27T19:52:12.675Z,20.83
2018-08-27T19:54:41.598Z,20.78
2018-08-27T19:57:11.104Z,20.78
2018-08-27T19:59:40.755Z,20.75
2018-08-27T20:02:10.310Z,20.77
2018-08-27T20:04:40.190Z,20.73
2018-08-27T20:07:09.593Z,20.70
2018-08-27T20:09:38.422Z,20.65
2018-08-27T20:12:07.293Z,20.62
2018-08-27T20:14:36.338Z,20.59
2018-08-27T20:17:05.305Z,20.61
2018-08-27T20:19:34.121Z,20.59
2018-08-27T20:22:03.116Z,20.54
2018-08-27T20:24:33.459Z,20.47
2018-08-27T20:27:02.774Z,20.46
2018-08-27T20:29:31.594Z,20.41
2018-08-27T20:32:00.384Z,20.37
2018-08-27T20:34:30.240Z,20.33
2018-08-27T20:36:59.564Z,20.25
2018-08-27T20:39:28.826Z,20.17
2018-08-27T20:41:58.990Z,20.15
2018-08-27T20:44:28.110Z,20.08
2018-08-27T20:46:56.961Z,20.05
2018-08-27T20:49:25.660Z,20.00
2018-08-27T20:51:55.565Z,19.98
2018-08-27T20:54:24.343Z,19.95
2018-08-27T20:56:53.415Z,19.91
2018-08-27T20:59:22.479Z,19.72
2018-08-27T21:01:51.490Z,19.68
2018-08-27T21:04:21.248Z,19.65
2018-08-27T21:06:50.144Z,19.63
2018-08-27T21:09:19.225Z,19.55
2018-08-27T21:11:48.653Z,19.52
2018-08-27T21:14:24.330Z,19.54
2018-08-27T21:16:54.223Z,19.53
2018-08-27T21:19:23.086Z,19.48
2018-08-27T21:21:52.589Z,19.40
2018-08-27T21:24:22.568Z,19.37
2018-08-27T21:26:51.438Z,19.36
2018-08-27T21:29:20.043Z,19.35
2018-08-27T21:31:49.314Z,19.31
2018-08-27T21:34:18.179Z,19.25
2018-08-27T21:36:46.739Z,19.17
2018-08-27T21:39:15.851Z,19.15
2018-08-27T21:41:45.773Z,19.18
2018-08-27T21:44:14.444Z,19.16
2018-08-27T21:46:43.288Z,19.18
2018-08-27T21:49:11.997Z,19.13
2018-08-27T21:51:42.044Z,19.12
2018-08-27T21:54:10.883Z,19.13
2018-08-27T21:56:39.574Z,19.12
2018-08-27T21:59:08.341Z,19.13
2018-08-27T22:01:37.114Z,19.12
2018-08-27T22:04:12.668Z,19.11
2018-08-27T22:06:43.555Z,19.08
2018-08-27T22:09:14.033Z,19.00
2018-08-27T22:11:43.279Z,19.02
2018-08-27T22:14:12.099Z,18.94
2018-08-27T22:16:41.049Z,18.78
2018-08-27T22:19:13.304Z,18.82
2018-08-27T22:21:42.055Z,18.87
2018-08-27T22:24:12.375Z,18.85
2018-08-27T22:26:40.988Z,18.86
2018-08-27T22:29:11.249Z,18.85
2018-08-27T22:31:39.887Z,18.73
2018-08-27T22:34:08.564Z,18.70
2018-08-27T22:36:38.703Z,18.60
2018-08-27T22:39:07.607Z,18.60
2018-08-27T22:41:36.295Z,18.48
2018-08-27T22:44:05.364Z,18.48
2018-08-27T22:46:35.700Z,18.51
2018-08-27T22:49:04.712Z,18.46
2018-08-27T22:51:33.367Z,18.46
2018-08-27T22:54:02.457Z,18.38
2018-08-27T22:56:31.167Z,18.38
2018-08-27T22:59:00.684Z,18.37
2018-08-27T23:01:29.602Z,18.29
2018-08-27T23:04:03.654Z,18.27
2018-08-27T23:06:32.924Z,18.25
2018-08-27T23:09:03.048Z,18.23
2018-08-27T23:11:32.707Z,18.24
2018-08-27T23:14:01.738Z,18.26
2018-08-27T23:16:32.158Z,18.24
2018-08-27T23:19:03.287Z,18.22
2018-08-27T23:21:33.088Z,18.11
2018-08-27T23:24:01.755Z,18.00
2018-08-27T23:26:31.193Z,17.98
2018-08-27T23:29:00.150Z,17.92
2018-08-27T23:31:29.033Z,17.92
2018-08-27T23:33:57.664Z,17.90
2018-08-27T23:36:26.726Z,17.89
2018-08-27T23:38:55.415Z,17.89
2018-08-27T23:41:24.297Z,17.92
2018-08-27T23:43:52.954Z,17.94
2018-08-27T23:46:21.519Z,17.98
2018-08-27T23:48:51.220Z,17.97
2018-08-27T23:51:22.190Z,17.96
2018-08-27T23:53:51.653Z,17.96
2018-08-27T23:56:21.059Z,17.92
2018-08-27T23:58:49.843Z,17.91
